Time;durP1;ratioP1;P1;durP2;ratioP2;P2;SDS_P1;SDS_P2;PMS_P1;PMS_P2;Temp;Humidity;BMP_temperature;BMP_pressure;BME280_temperature;BME280_humidity;BME280_pressure;Samples;Min_cycle;Max_cycle;Signal;HPM_P1;HPM_P2
2023/01/23 00:01:26;;;;;;;44.60;26.13;;;;;;;;;;4976866;28;20035;-92
2023/01/23 00:03:54;;;;;;;57.75;31.92;;;;;;;;;;4977148;28;20136;-90
2023/01/23 00:06:23;;;;;;;63.92;34.10;;;;;;;;;;4976687;28;20144;-88
2023/01/23 00:08:49;;;;;;;58.90;31.23;;;;;;;;;;4960713;28;20114;-90
2023/01/23 00:11:16;;;;;;;52.28;29.88;;;;;;;;;;4960696;28;20034;-91
2023/01/23 00:13:43;;;;;;;39.25;21.40;;;;;;;;;;4976559;28;20034;-90
2023/01/23 00:16:13;;;;;;;59.22;32.65;;;;;;;;;;4976866;28;20114;-91
2023/01/23 00:18:45;;;;;;;45.10;26.50;;;;;;;;;;4960465;28;20534;-94
2023/01/23 00:21:13;;;;;;;49.95;27.60;;;;;;;;;;4976816;28;20043;-88
2023/01/23 00:23:44;;;;;;;46.60;26.10;;;;;;;;;;4976323;28;20030;-91
2023/01/23 00:26:17;;;;;;;44.75;26.08;;;;;;;;;;4976586;28;20416;-93
2023/01/23 00:28:43;;;;;;;;;;;;;;;;;;4976917;28;20106;-91
2023/01/23 00:31:17;;;;;;;44.28;24.27;;;;;;;;;;4960267;28;20037;-90
2023/01/23 00:33:45;;;;;;;;;;;;;;;;;;4976840;28;20031;-91
2023/01/23 00:40:00;;;;;;;41.22;23.10;;;;;;;;;;5005893;23;20069;-93
2023/01/23 00:42:32;;;;;;;33.47;19.75;;;;;;;;;;4996395;23;20034;-88
2023/01/23 00:45:02;;;;;;;43.70;25.35;;;;;;;;;;4979465;28;20047;-92
2023/01/23 00:47:31;;;;;;;44.88;24.42;;;;;;;;;;4979273;28;20101;-91
2023/01/23 00:49:58;;;;;;;37.30;21.45;;;;;;;;;;4979455;28;20029;-92
2023/01/23 00:52:24;;;;;;;27.40;16.75;;;;;;;;;;4979329;28;20109;-92
2023/01/23 00:54:50;;;;;;;26.25;16.50;;;;;;;;;;4979444;28;20026;-92
2023/01/23 00:57:17;;;;;;;26.13;16.05;;;;;;;;;;4980579;28;20030;-92
2023/01/23 00:59:46;;;;;;;28.60;17.02;;;;;;;;;;4981270;28;20557;-90
2023/01/23 01:02:12;;;;;;;26.77;16.08;;;;;;;;;;4991001;28;20049;-92
2023/01/23 01:04:44;;;;;;;29.00;18.42;;;;;;;;;;4985354;28;20499;-89
2023/01/23 01:07:10;;;;;;;32.90;19.65;;;;;;;;;;4981009;28;20030;-90
2023/01/23 01:09:39;;;;;;;29.63;17.35;;;;;;;;;;4980788;28;20038;-93
2023/01/23 01:12:05;;;;;;;38.13;22.40;;;;;;;;;;4978077;28;20026;-90
2023/01/23 01:14:32;;;;;;;52.55;26.58;;;;;;;;;;4977391;28;20201;-92
2023/01/23 01:16:58;;;;;;;61.67;32.45;;;;;;;;;;4977149;28;20041;-92
2023/01/23 01:19:24;;;;;;;49.50;29.70;;;;;;;;;;4978034;28;20143;-91
2023/01/23 01:21:50;;;;;;;47.88;28.17;;;;;;;;;;4977727;28;20026;-92
2023/01/23 01:24:19;;;;;;;59.80;32.88;;;;;;;;;;4978255;28;20031;-93
2023/01/23 01:26:45;;;;;;;63.22;34.30;;;;;;;;;;4978456;28;20066;-92
2023/01/23 01:29:11;;;;;;;68.80;35.08;;;;;;;;;;4980049;28;20050;-91
2023/01/23 01:31:37;;;;;;;65.38;36.28;;;;;;;;;;4999244;28;20022;-92
2023/01/23 01:34:03;;;;;;;66.93;37.38;;;;;;;;;;4981669;28;20022;-92
2023/01/23 01:36:29;;;;;;;57.00;32.72;;;;;;;;;;4976890;28;20429;-91
2023/01/23 01:38:55;;;;;;;43.13;24.17;;;;;;;;;;4976669;28;20022;-91
2023/01/23 01:41:25;;;;;;;37.15;21.42;;;;;;;;;;4997591;28;20029;-91
2023/01/23 01:43:52;;;;;;;50.15;27.50;;;;;;;;;;4986515;28;20039;-90
2023/01/23 01:46:29;;;;;;;41.45;24.13;;;;;;;;;;4986275;28;20032;-91
2023/01/23 01:49:15;;;;;;;25.10;15.98;;;;;;;;;;5663531;23;20058;-92
2023/01/23 01:51:54;;;;;;;37.80;21.67;;;;;;;;;;4979921;28;20038;-92
2023/01/23 01:54:52;;;;;;;54.45;29.40;;;;;;;;;;4978201;28;20022;-93
2023/01/23 01:57:20;;;;;;;53.30;28.73;;;;;;;;;;4966697;28;20399;-93
2023/01/23 01:59:59;;;;;;;67.85;37.67;;;;;;;;;;4993741;28;20102;-91
2023/01/23 02:02:31;;;;;;;58.83;34.15;;;;;;;;;;4993073;28;20054;-90
2023/01/23 02:05:02;;;;;;;56.03;31.88;;;;;;;;;;4975804;28;20034;-93
2023/01/23 02:07:53;;;;;;;41.90;24.85;;;;;;;;;;4975897;28;20018;-93
2023/01/23 02:10:19;;;;;;;41.50;23.05;;;;;;;;;;4976443;28;20037;-93
2023/01/23 02:12:50;;;;;;;38.13;21.38;;;;;;;;;;4976244;28;20451;-92
2023/01/23 02:15:17;;;;;;;42.80;24.70;;;;;;;;;;4975737;28;20030;-93
2023/01/23 02:17:43;;;;;;;44.47;24.05;;;;;;;;;;4976248;28;20038;-92
2023/01/23 02:20:13;;;;;;;34.55;20.50;;;;;;;;;;4976145;28;20023;-94
2023/01/23 02:22:57;;;;;;;37.22;20.70;;;;;;;;;;4975914;28;20042;-93
2023/01/23 02:25:27;;;;;;;37.42;20.58;;;;;;;;;;4975842;28;20084;-92
2023/01/23 02:27:53;;;;;;;33.42;19.92;;;;;;;;;;4975804;28;20030;-90
2023/01/23 02:30:22;;;;;;;36.85;20.65;;;;;;;;;;4975452;28;20036;-93
2023/01/23 02:32:48;;;;;;;34.20;19.50;;;;;;;;;;4975263;28;20038;-93
2023/01/23 02:35:33;;;;;;;32.03;18.90;;;;;;;;;;4975863;28;20029;-93
2023/01/23 02:38:04;;;;;;;38.13;20.50;;;;;;;;;;4975463;28;20026;-93
2023/01/23 02:40:35;;;;;;;35.08;20.27;;;;;;;;;;4975685;28;20038;-93
2023/01/23 02:43:09;;;;;;;42.03;23.42;;;;;;;;;;4975951;28;20030;-88
2023/01/23 02:45:35;;;;;;;37.90;22.13;;;;;;;;;;4975294;28;20034;-88
2023/01/23 02:48:01;;;;;;;32.92;19.40;;;;;;;;;;4975378;28;20033;-91
2023/01/23 02:50:28;;;;;;;29.83;18.08;;;;;;;;;;4974806;28;20054;-89
2023/01/23 02:52:56;;;;;;;37.40;20.73;;;;;;;;;;4975089;28;20046;-88
2023/01/23 02:55:28;;;;;;;33.72;19.88;;;;;;;;;;4974500;28;20058;-91
2023/01/23 03:00:14;;;;;;;32.55;19.33;;;;;;;;;;4975117;28;20439;-88
2023/01/23 03:00:47;;;;;;;33.53;19.42;;;;;;;;;;4991913;28;20026;-91
2023/01/23 03:03:17;;;;;;;27.30;15.98;;;;;;;;;;4974878;28;20030;-89
2023/01/23 03:05:43;;;;;;;40.20;21.83;;;;;;;;;;4975040;28;20471;-92
2023/01/23 03:08:10;;;;;;;33.72;19.92;;;;;;;;;;4975304;28;20113;-88
2023/01/23 03:10:36;;;;;;;30.10;16.52;;;;;;;;;;4975663;28;20471;-87
2023/01/23 03:13:03;;;;;;;26.42;16.25;;;;;;;;;;4975384;28;20038;-85
2023/01/23 03:15:37;;;;;;;28.77;17.20;;;;;;;;;;4975740;28;20026;-87
2023/01/23 03:18:22;;;;;;;29.48;16.85;;;;;;;;;;4977186;28;20035;-89
2023/01/23 03:21:19;;;;;;;28.27;17.40;;;;;;;;;;4976850;28;20027;-91
2023/01/23 03:26:50;;;;;;;25.05;13.85;;;;;;;;;;4994709;28;20497;-92
2023/01/23 03:32:05;;;;;;;23.05;13.93;;;;;;;;;;4992777;28;20143;-88
2023/01/23 03:34:32;;;;;;;20.58;12.13;;;;;;;;;;4977021;28;20456;-87
2023/01/23 03:36:59;;;;;;;24.35;14.35;;;;;;;;;;4979121;28;20034;-91
2023/01/23 03:42:10;;;;;;;19.83;12.70;;;;;;;;;;5002932;28;20089;-92
2023/01/23 03:44:39;;;;;;;20.65;12.90;;;;;;;;;;4979156;28;20026;-92
2023/01/23 03:47:08;;;;;;;27.50;15.45;;;;;;;;;;4992024;28;20038;-91
2023/01/23 03:49:35;;;;;;;30.65;15.45;;;;;;;;;;4992095;28;20109;-91
2023/01/23 03:52:01;;;;;;;22.63;13.15;;;;;;;;;;4982330;28;20035;-89
2023/01/23 03:54:30;;;;;;;21.95;13.00;;;;;;;;;;4978879;28;20032;-91
2023/01/23 03:56:59;;;;;;;22.30;12.98;;;;;;;;;;4978245;28;20030;-91
2023/01/23 03:59:28;;;;;;;21.75;12.65;;;;;;;;;;4978131;28;20026;-89
2023/01/23 04:01:56;;;;;;;21.90;12.27;;;;;;;;;;4978270;28;20164;-91
2023/01/23 04:04:22;;;;;;;18.83;10.30;;;;;;;;;;4977569;28;20038;-91
2023/01/23 04:06:52;;;;;;;18.55;11.30;;;;;;;;;;4978509;28;20026;-90
2023/01/23 04:09:26;;;;;;;20.17;11.73;;;;;;;;;;4978261;28;20038;-90
2023/01/23 04:11:52;;;;;;;21.35;12.90;;;;;;;;;;4978137;28;20133;-88
2023/01/23 04:14:24;;;;;;;19.15;11.25;;;;;;;;;;4978077;28;20026;-91
2023/01/23 04:16:52;;;;;;;19.65;11.43;;;;;;;;;;4977904;28;20033;-89
2023/01/23 04:19:18;;;;;;;17.75;11.13;;;;;;;;;;4976511;28;20088;-91
2023/01/23 04:21:52;;;;;;;19.25;11.50;;;;;;;;;;4977825;28;20483;-92
2023/01/23 04:24:18;;;;;;;19.02;10.60;;;;;;;;;;4978030;28;20080;-91
2023/01/23 04:26:44;;;;;;;19.92;11.30;;;;;;;;;;4978379;28;20030;-88
2023/01/23 04:29:11;;;;;;;16.17;9.93;;;;;;;;;;4977767;28;20022;-90
2023/01/23 04:31:37;;;;;;;17.67;10.85;;;;;;;;;;4976239;28;20046;-91
2023/01/23 04:34:03;;;;;;;16.73;9.85;;;;;;;;;;4977977;28;20173;-90
2023/01/23 04:36:29;;;;;;;16.17;9.63;;;;;;;;;;4979180;28;20298;-89
2023/01/23 04:38:58;;;;;;;15.68;9.60;;;;;;;;;;4977989;28;20031;-93
2023/01/23 04:41:26;;;;;;;16.77;10.38;;;;;;;;;;4977451;28;20034;-91
2023/01/23 04:43:55;;;;;;;21.58;13.40;;;;;;;;;;4977346;28;20483;-91
2023/01/23 04:46:27;;;;;;;21.15;12.48;;;;;;;;;;4977613;28;20479;-93
2023/01/23 04:48:53;;;;;;;16.73;10.82;;;;;;;;;;4977457;28;20113;-88
2023/01/23 04:51:20;;;;;;;18.00;10.68;;;;;;;;;;4977161;28;20030;-93
2023/01/23 04:53:49;;;;;;;23.20;13.23;;;;;;;;;;4977428;28;20505;-92
2023/01/23 04:56:24;;;;;;;22.55;13.25;;;;;;;;;;4976951;28;20443;-90
2023/01/23 04:58:53;;;;;;;23.30;12.63;;;;;;;;;;4977114;28;20049;-92
2023/01/23 05:01:22;;;;;;;18.80;10.95;;;;;;;;;;4977696;28;20031;-88
2023/01/23 05:03:55;;;;;;;18.85;10.48;;;;;;;;;;4979641;28;20038;-92
2023/01/23 05:06:21;;;;;;;;;;;;;;;;;;4978214;28;20054;-92
2023/01/23 05:08:50;;;;;;;17.45;9.82;;;;;;;;;;4995702;28;19906;-92
2023/01/23 05:11:19;;;;;;;16.83;10.27;;;;;;;;;;4978741;28;20111;-92
2023/01/23 05:13:45;;;;;;;15.68;9.25;;;;;;;;;;4988057;28;20030;-90
2023/01/23 05:16:14;;;;;;;19.42;11.05;;;;;;;;;;4991733;28;20061;-92
2023/01/23 05:18:41;;;;;;;16.02;9.23;;;;;;;;;;4979145;28;20054;-93
2023/01/23 05:21:09;;;;;;;15.45;9.25;;;;;;;;;;4977406;28;20541;-93
2023/01/23 05:23:41;;;;;;;17.52;9.65;;;;;;;;;;4976335;28;20535;-90
2023/01/23 05:26:10;;;;;;;16.20;9.98;;;;;;;;;;4976967;28;20076;-93
2023/01/23 05:28:40;;;;;;;20.10;11.18;;;;;;;;;;4976702;28;20110;-91
2023/01/23 05:31:06;;;;;;;19.13;11.02;;;;;;;;;;4976815;28;20050;-91
2023/01/23 05:33:32;;;;;;;17.27;10.55;;;;;;;;;;4977942;28;20033;-89
2023/01/23 05:35:59;;;;;;;18.13;11.45;;;;;;;;;;4985786;28;20053;-91
2023/01/23 05:38:31;;;;;;;16.25;10.38;;;;;;;;;;4990887;28;20069;-91
2023/01/23 05:41:15;;;;;;;18.45;11.27;;;;;;;;;;4979601;28;20042;-92
2023/01/23 05:43:53;;;;;;;21.38;12.18;;;;;;;;;;4976910;28;20034;-94
2023/01/23 05:46:19;;;;;;;19.95;10.73;;;;;;;;;;4992095;28;20490;-88
2023/01/23 05:48:48;;;;;;;19.65;11.45;;;;;;;;;;4983499;28;20030;-92
2023/01/23 05:51:19;;;;;;;18.17;10.80;;;;;;;;;;4976581;28;20125;-93
2023/01/23 05:53:49;;;;;;;17.35;10.07;;;;;;;;;;4977138;28;20052;-94
2023/01/23 05:56:24;;;;;;;16.00;9.95;;;;;;;;;;4975840;28;20027;-94
2023/01/23 05:58:54;;;;;;;15.65;9.82;;;;;;;;;;4975986;28;20029;-88
2023/01/23 06:04:26;;;;;;;19.05;9.63;;;;;;;;;;5606111;23;20401;-88
2023/01/23 06:09:37;;;;;;;19.95;10.45;;;;;;;;;;5409509;23;20059;-88
2023/01/23 06:12:09;;;;;;;25.48;11.07;;;;;;;;;;4955874;28;20092;-88
2023/01/23 06:14:39;;;;;;;19.33;10.77;;;;;;;;;;4956094;28;20033;-91
2023/01/23 06:17:05;;;;;;;19.83;10.90;;;;;;;;;;4956641;28;20046;-87
2023/01/23 06:19:40;;;;;;;18.55;10.73;;;;;;;;;;4955616;28;20141;-88
2023/01/23 06:22:09;;;;;;;17.13;10.43;;;;;;;;;;4957736;28;20041;-86
2023/01/23 06:27:33;;;;;;;24.80;12.43;;;;;;;;;;4894827;29;20482;-89
2023/01/23 06:30:05;;;;;;;23.15;12.70;;;;;;;;;;4883342;29;20446;-92
2023/01/23 06:32:32;;;;;;;19.85;11.88;;;;;;;;;;4892982;29;20053;-93
2023/01/23 06:34:58;;;;;;;23.02;12.57;;;;;;;;;;4883143;29;20135;-91
2023/01/23 06:37:29;;;;;;;23.40;13.95;;;;;;;;;;4881469;29;20177;-92
2023/01/23 06:40:03;;;;;;;24.88;14.18;;;;;;;;;;4881818;29;20037;-90
2023/01/23 06:42:29;;;;;;;29.63;17.15;;;;;;;;;;4881669;29;20064;-90
2023/01/23 06:44:57;;;;;;;33.72;19.30;;;;;;;;;;4907447;28;20035;-89
2023/01/23 06:47:23;;;;;;;34.92;19.38;;;;;;;;;;4957854;28;20026;-86
2023/01/23 06:49:49;;;;;;;30.67;17.25;;;;;;;;;;4957582;28;20126;-86
2023/01/23 06:52:18;;;;;;;31.50;18.30;;;;;;;;;;4957483;28;20042;-88
2023/01/23 06:54:45;;;;;;;26.98;16.17;;;;;;;;;;4957903;28;20098;-87
2023/01/23 06:57:11;;;;;;;23.85;14.70;;;;;;;;;;4958818;28;20039;-88
2023/01/23 06:59:46;;;;;;;23.30;13.20;;;;;;;;;;4958011;28;20034;-89
2023/01/23 07:02:12;;;;;;;21.23;12.43;;;;;;;;;;4957644;28;20065;-84
2023/01/23 07:04:47;;;;;;;20.83;11.65;;;;;;;;;;4964583;28;20123;-88
2023/01/23 07:07:13;;;;;;;19.30;11.63;;;;;;;;;;4974160;28;20042;-86
2023/01/23 07:09:43;;;;;;;19.23;10.45;;;;;;;;;;4949544;29;20138;-88
2023/01/23 07:12:14;;;;;;;20.30;11.07;;;;;;;;;;4939674;29;20061;-88
2023/01/23 07:14:43;;;;;;;17.33;11.05;;;;;;;;;;4939671;29;20030;-88
2023/01/23 07:17:15;;;;;;;20.05;11.77;;;;;;;;;;4939288;29;20554;-88
2023/01/23 07:19:41;;;;;;;18.20;10.90;;;;;;;;;;4938392;29;20066;-87
2023/01/23 07:22:07;;;;;;;18.60;11.15;;;;;;;;;;4937478;29;20031;-86
2023/01/23 07:24:33;;;;;;;17.77;10.30;;;;;;;;;;4937295;29;20488;-89
2023/01/23 07:26:59;;;;;;;20.90;12.48;;;;;;;;;;4938328;29;20031;-89
2023/01/23 07:29:28;;;;;;;19.60;11.27;;;;;;;;;;4937853;29;20449;-92
2023/01/23 07:32:03;;;;;;;19.85;11.05;;;;;;;;;;4925475;29;20039;-91
2023/01/23 07:34:29;;;;;;;19.23;11.10;;;;;;;;;;4924260;29;20034;-89
2023/01/23 07:36:55;;;;;;;19.17;11.25;;;;;;;;;;4948769;29;20075;-91
2023/01/23 07:39:22;;;;;;;19.25;11.23;;;;;;;;;;4919434;29;20172;-89
2023/01/23 07:41:54;;;;;;;18.90;11.45;;;;;;;;;;4919503;29;20027;-91
2023/01/23 07:44:26;;;;;;;21.60;11.20;;;;;;;;;;4920446;29;20461;-88
2023/01/23 07:46:54;;;;;;;19.23;10.90;;;;;;;;;;4921310;29;20024;-91
2023/01/23 07:49:23;;;;;;;18.30;11.13;;;;;;;;;;4919513;29;20036;-90
2023/01/23 07:51:49;;;;;;;17.77;10.65;;;;;;;;;;4922048;29;20027;-88
2023/01/23 07:54:21;;;;;;;17.98;10.35;;;;;;;;;;4935450;29;20440;-91
2023/01/23 07:56:51;;;;;;;18.45;10.40;;;;;;;;;;4935677;29;20019;-92
2023/01/23 07:59:17;;;;;;;16.17;10.13;;;;;;;;;;4935139;29;20031;-86
2023/01/23 08:02:05;;;;;;;19.33;11.77;;;;;;;;;;4927507;29;20122;-92
2023/01/23 08:04:31;;;;;;;20.15;11.40;;;;;;;;;;4922395;29;20066;-90
2023/01/23 08:07:00;;;;;;;17.60;10.38;;;;;;;;;;4932580;29;20035;-91
2023/01/23 08:09:29;;;;;;;16.95;10.43;;;;;;;;;;4923778;29;20059;-92
2023/01/23 08:11:55;;;;;;;21.08;11.68;;;;;;;;;;4937541;29;20082;-86
2023/01/23 08:14:21;;;;;;;20.38;11.65;;;;;;;;;;4951187;29;20036;-89
2023/01/23 08:19:54;;;;;;;20.10;10.65;;;;;;;;;;4942578;28;20085;-89
2023/01/23 08:22:20;;;;;;;23.98;12.45;;;;;;;;;;4935899;29;20094;-88
2023/01/23 08:24:49;;;;;;;24.63;13.00;;;;;;;;;;4929969;29;20035;-88
2023/01/23 08:27:21;;;;;;;26.17;14.27;;;;;;;;;;4922085;29;20054;-90
2023/01/23 08:29:47;;;;;;;21.83;11.90;;;;;;;;;;4922258;29;20118;-90
2023/01/23 08:32:14;;;;;;;19.48;10.40;;;;;;;;;;4921510;29;20145;-90
2023/01/23 08:34:40;;;;;;;18.52;10.05;;;;;;;;;;4907858;29;20040;-89
2023/01/23 08:37:14;;;;;;;16.52;9.98;;;;;;;;;;4921844;29;20429;-91
2023/01/23 08:39:41;;;;;;;28.10;14.73;;;;;;;;;;4922260;29;20032;-87
2023/01/23 08:42:19;;;;;;;18.02;10.20;;;;;;;;;;4921634;29;20034;-90
2023/01/23 08:48:11;;;;;;;21.80;13.40;;;;;;;;;;4983156;23;20043;-91
2023/01/23 08:53:24;;;;;;;20.08;11.32;;;;;;;;;;5017160;23;20050;-90
2023/01/23 08:56:04;;;;;;;18.95;11.48;;;;;;;;;;4957012;28;20035;-93
2023/01/23 08:58:37;;;;;;;20.50;11.73;;;;;;;;;;4943624;29;20055;-90
2023/01/23 09:01:03;;;;;;;17.25;10.05;;;;;;;;;;4967855;28;20030;-90
2023/01/23 09:03:29;;;;;;;19.15;11.23;;;;;;;;;;4983274;28;20069;-90
2023/01/23 09:06:09;;;;;;;16.33;9.25;;;;;;;;;;4982232;28;20081;-89
2023/01/23 09:08:45;;;;;;;16.90;9.50;;;;;;;;;;4979018;28;20112;-90
2023/01/23 09:11:15;;;;;;;15.85;9.45;;;;;;;;;;4980991;28;20042;-90
2023/01/23 09:13:41;;;;;;;14.70;8.32;;;;;;;;;;4983295;28;20026;-89
2023/01/23 09:16:32;;;;;;;14.20;8.30;;;;;;;;;;4978571;28;20030;-89
2023/01/23 09:24:46;;;;;;;18.35;9.73;;;;;;;;;;5591316;23;20050;-91
2023/01/23 09:27:13;;;;;;;17.70;9.25;;;;;;;;;;4924866;29;20035;-89
2023/01/23 09:29:51;;;;;;;16.75;10.25;;;;;;;;;;4951451;28;20042;-89
2023/01/23 09:32:30;;;;;;;18.40;9.65;;;;;;;;;;4959529;28;20035;-92
2023/01/23 09:34:59;;;;;;;17.13;10.15;;;;;;;;;;4960120;28;20033;-91
2023/01/23 09:37:58;;;;;;;15.27;9.55;;;;;;;;;;4970323;28;20057;-90
2023/01/23 09:40:35;;;;;;;15.60;9.32;;;;;;;;;;4964451;28;20027;-90
2023/01/23 09:45:32;;;;;;;15.65;9.18;;;;;;;;;;5040972;23;20133;-91
2023/01/23 09:48:18;;;;;;;15.73;9.35;;;;;;;;;;4978122;28;20023;-90
2023/01/23 09:50:53;;;;;;;14.75;8.77;;;;;;;;;;4967493;28;20577;-90
2023/01/23 09:53:25;;;;;;;14.52;8.88;;;;;;;;;;4963210;28;20089;-89
2023/01/23 09:56:02;;;;;;;13.93;8.52;;;;;;;;;;4971851;28;20027;-89
2023/01/23 09:58:32;;;;;;;14.30;8.10;;;;;;;;;;5034361;23;20080;-88
2023/01/23 10:01:07;;;;;;;14.20;8.63;;;;;;;;;;4992760;28;20023;-88
2023/01/23 10:03:34;;;;;;;14.73;8.90;;;;;;;;;;5018321;23;20210;-88
2023/01/23 10:06:18;;;;;;;16.10;9.30;;;;;;;;;;4977644;28;20031;-89
2023/01/23 10:08:50;;;;;;;14.20;8.65;;;;;;;;;;4978089;28;20023;-89
2023/01/23 10:11:35;;;;;;;14.18;9.38;;;;;;;;;;4979029;28;20041;-92
2023/01/23 10:14:20;;;;;;;14.27;8.48;;;;;;;;;;4977914;28;20527;-89
2023/01/23 10:17:05;;;;;;;15.70;8.90;;;;;;;;;;4977368;28;20038;-89
2023/01/23 10:19:46;;;;;;;14.20;8.35;;;;;;;;;;4977946;28;20426;-89
2023/01/23 10:22:25;;;;;;;13.07;8.57;;;;;;;;;;4977742;28;20133;-89
2023/01/23 10:25:04;;;;;;;15.52;10.80;;;;;;;;;;4977786;28;20149;-89
2023/01/23 10:27:33;;;;;;;15.00;8.52;;;;;;;;;;4977723;28;20057;-88
2023/01/23 10:30:05;;;;;;;13.77;8.60;;;;;;;;;;4977713;28;20038;-89
2023/01/23 10:32:47;;;;;;;14.10;7.80;;;;;;;;;;4977481;28;20038;-88
2023/01/23 10:35:38;;;;;;;13.70;8.40;;;;;;;;;;4977532;28;20022;-88
2023/01/23 10:38:23;;;;;;;12.85;8.32;;;;;;;;;;4949392;28;20040;-89
2023/01/23 10:43:37;;;;;;;15.00;9.55;;;;;;;;;;4985938;28;20038;-88
2023/01/23 10:49:42;;;;;;;14.45;9.25;;;;;;;;;;4918567;28;20461;-87
2023/01/23 10:52:31;;;;;;;21.17;12.57;;;;;;;;;;4978991;28;20422;-88
2023/01/23 10:54:57;;;;;;;14.88;9.00;;;;;;;;;;4979533;28;20069;-89
2023/01/23 10:57:25;;;;;;;14.00;8.38;;;;;;;;;;4979094;28;20030;-88
2023/01/23 10:59:54;;;;;;;13.27;8.60;;;;;;;;;;4987671;28;20086;-87
2023/01/23 11:02:31;;;;;;;12.73;8.35;;;;;;;;;;5003509;28;20030;-89
2023/01/23 11:04:57;;;;;;;26.52;23.67;;;;;;;;;;4976921;28;20034;-89
2023/01/23 11:07:25;;;;;;;11.77;8.15;;;;;;;;;;4992789;28;20024;-87
2023/01/23 11:10:20;;;;;;;13.20;7.40;;;;;;;;;;4993890;28;20022;-87
2023/01/23 11:12:47;;;;;;;12.98;7.30;;;;;;;;;;4960640;28;20039;-87
2023/01/23 11:15:28;;;;;;;14.57;9.48;;;;;;;;;;4976781;28;20475;-87
2023/01/23 11:17:58;;;;;;;13.50;8.57;;;;;;;;;;4977301;28;20023;-93
2023/01/23 11:20:26;;;;;;;14.00;9.00;;;;;;;;;;4976414;28;20036;-88
2023/01/23 11:23:18;;;;;;;11.35;7.80;;;;;;;;;;4976361;28;20030;-90
2023/01/23 11:25:46;;;;;;;13.32;9.15;;;;;;;;;;4980933;28;20030;-86
2023/01/23 11:28:29;;;;;;;13.80;8.15;;;;;;;;;;4993547;28;20466;-90
2023/01/23 11:34:18;;;;;;;10.95;6.90;;;;;;;;;;5010149;23;20081;-91
2023/01/23 11:37:09;;;;;;;10.65;7.10;;;;;;;;;;4968299;28;20635;-88
2023/01/23 11:39:54;;;;;;;10.57;6.72;;;;;;;;;;4975719;28;20030;-90
2023/01/23 11:42:30;;;;;;;10.85;6.72;;;;;;;;;;4977959;28;20061;-92
2023/01/23 11:45:04;;;;;;;11.32;6.90;;;;;;;;;;4976588;28;20019;-91
2023/01/23 11:47:46;;;;;;;13.02;7.13;;;;;;;;;;4993778;28;20035;-87
2023/01/23 11:50:38;;;;;;;11.23;6.50;;;;;;;;;;4979448;28;20374;-91
2023/01/23 11:53:19;;;;;;;10.55;6.03;;;;;;;;;;4977620;28;20203;-88
2023/01/23 11:56:07;;;;;;;11.55;7.03;;;;;;;;;;4979548;28;20069;-90
2023/01/23 11:58:33;;;;;;;10.75;6.93;;;;;;;;;;4980405;28;20054;-89
2023/01/23 12:01:10;;;;;;;10.35;6.65;;;;;;;;;;4980229;28;20037;-90
2023/01/23 12:03:57;;;;;;;11.57;7.25;;;;;;;;;;4980511;28;20027;-88
2023/01/23 12:06:26;;;;;;;11.52;6.38;;;;;;;;;;4980299;28;20026;-89
2023/01/23 12:09:01;;;;;;;11.35;7.10;;;;;;;;;;4980276;28;20037;-87
2023/01/23 12:11:32;;;;;;;11.05;7.40;;;;;;;;;;4980211;28;20030;-87
2023/01/23 12:14:17;;;;;;;12.30;7.68;;;;;;;;;;4980080;28;20070;-90
2023/01/23 12:20:17;;;;;;;14.65;7.80;;;;;;;;;;5189153;23;20066;-90
2023/01/23 12:55:07;;;;;;;14.02;8.20;;;;;;;;;;5415646;23;19922;-89
2023/01/23 13:08:38;;;;;;;15.63;9.55;;;;;;;;;;5419019;23;20473;-88
2023/01/23 13:13:52;;;;;;;15.52;9.20;;;;;;;;;;4965488;28;20049;-87
2023/01/23 13:16:19;;;;;;;13.18;8.63;;;;;;;;;;4970967;28;20050;-86
2023/01/23 13:32:38;;;;;;;11.88;7.95;;;;;;;;;;5493540;23;20050;-89
2023/01/23 13:35:26;;;;;;;14.40;8.32;;;;;;;;;;4982053;28;20049;-90
2023/01/23 13:38:19;;;;;;;13.00;8.38;;;;;;;;;;4977701;28;20031;-89
2023/01/23 13:44:03;;;;;;;15.60;8.82;;;;;;;;;;4996559;28;20080;-90
2023/01/23 13:46:50;;;;;;;14.25;8.68;;;;;;;;;;4978510;28;20030;-89
2023/01/23 13:49:50;;;;;;;12.73;8.90;;;;;;;;;;5006998;23;20089;-89
2023/01/23 13:57:37;;;;;;;18.10;12.02;;;;;;;;;;4976266;28;20034;-90
2023/01/23 14:00:06;;;;;;;69.00;45.40;;;;;;;;;;4960928;29;20039;-90
2023/01/23 14:05:26;;;;;;;14.48;9.20;;;;;;;;;;4976198;28;20044;-87
2023/01/23 14:07:59;;;;;;;18.90;11.32;;;;;;;;;;4975982;28;20074;-89
2023/01/23 14:10:27;;;;;;;12.90;8.43;;;;;;;;;;4959439;28;20057;-87
2023/01/23 14:17:57;;;;;;;11.15;7.03;;;;;;;;;;4992003;28;20038;-87
2023/01/23 14:20:26;;;;;;;22.20;13.30;;;;;;;;;;4977752;28;20113;-88
2023/01/23 14:22:56;;;;;;;29.60;16.73;;;;;;;;;;4977631;28;20030;-87
2023/01/23 14:25:22;;;;;;;14.35;8.18;;;;;;;;;;4978025;28;20034;-88
2023/01/23 14:27:48;;;;;;;14.50;8.60;;;;;;;;;;4994876;28;20029;-88
2023/01/23 14:30:17;;;;;;;14.02;8.95;;;;;;;;;;4978042;28;20030;-87
2023/01/23 14:32:46;;;;;;;13.95;8.13;;;;;;;;;;4978330;28;20041;-92
2023/01/23 14:35:39;;;;;;;64.18;39.53;;;;;;;;;;4978816;28;20487;-91
2023/01/23 14:38:47;;;;;;;12.82;8.07;;;;;;;;;;4977924;28;20029;-92
2023/01/23 14:41:13;;;;;;;15.40;8.73;;;;;;;;;;4932595;28;20169;-89
2023/01/23 14:43:46;;;;;;;15.07;8.52;;;;;;;;;;4982024;28;20033;-86
2023/01/23 14:46:20;;;;;;;12.07;7.80;;;;;;;;;;4988602;28;20130;-89
2023/01/23 14:48:55;;;;;;;13.70;8.35;;;;;;;;;;4995636;28;20030;-88
2023/01/23 14:51:31;;;;;;;12.23;8.02;;;;;;;;;;4977059;28;20030;-89
2023/01/23 14:54:01;;;;;;;15.57;9.35;;;;;;;;;;4973648;28;20030;-88
2023/01/23 14:56:35;;;;;;;15.48;9.13;;;;;;;;;;4977012;28;20453;-89
2023/01/23 14:59:03;;;;;;;15.27;8.65;;;;;;;;;;4976865;28;20040;-86
2023/01/23 15:01:29;;;;;;;15.73;8.95;;;;;;;;;;4977327;28;20022;-86
2023/01/23 15:04:04;;;;;;;14.60;8.63;;;;;;;;;;4976940;28;20042;-87
2023/01/23 15:06:32;;;;;;;15.57;8.80;;;;;;;;;;4977497;28;20034;-87
2023/01/23 15:09:13;;;;;;;16.27;8.95;;;;;;;;;;4980413;28;20109;-87
2023/01/23 15:11:39;;;;;;;14.43;8.93;;;;;;;;;;4979578;28;20026;-86
2023/01/23 15:14:20;;;;;;;16.52;9.60;;;;;;;;;;4977175;28;20072;-88
2023/01/23 15:16:52;;;;;;;18.27;11.05;;;;;;;;;;4991054;28;20113;-89
2023/01/23 15:19:28;;;;;;;15.82;9.00;;;;;;;;;;4993936;28;20074;-89
2023/01/23 15:22:07;;;;;;;14.15;8.25;;;;;;;;;;4993490;28;20046;-89
2023/01/23 15:24:33;;;;;;;13.93;8.40;;;;;;;;;;4974724;28;20062;-88
2023/01/23 15:27:02;;;;;;;14.68;8.68;;;;;;;;;;4974574;28;20479;-86
2023/01/23 15:29:28;;;;;;;15.25;8.48;;;;;;;;;;4977270;28;20059;-89
2023/01/23 15:31:55;;;;;;;16.02;9.80;;;;;;;;;;4980656;28;20034;-88
2023/01/23 15:34:26;;;;;;;15.27;9.63;;;;;;;;;;4980315;28;20029;-90
2023/01/23 15:37:04;;;;;;;15.30;9.13;;;;;;;;;;5000914;28;20045;-92
2023/01/23 15:39:42;;;;;;;16.50;9.57;;;;;;;;;;4988890;28;20049;-88
2023/01/23 15:42:11;;;;;;;16.92;9.63;;;;;;;;;;4977914;28;20097;-87
2023/01/23 15:44:41;;;;;;;18.50;10.30;;;;;;;;;;4961912;28;20035;-88
2023/01/23 15:47:10;;;;;;;15.80;9.93;;;;;;;;;;4961509;28;20027;-88
2023/01/23 15:49:38;;;;;;;17.98;10.65;;;;;;;;;;4961079;28;20031;-87
2023/01/23 15:52:23;;;;;;;13.98;8.73;;;;;;;;;;4961402;28;20097;-87
2023/01/23 15:54:54;;;;;;;15.52;9.80;;;;;;;;;;4961324;28;20038;-88
2023/01/23 15:57:23;;;;;;;16.83;9.88;;;;;;;;;;4961199;28;20476;-87
2023/01/23 15:59:49;;;;;;;16.88;10.68;;;;;;;;;;4961041;28;20035;-85
2023/01/23 16:02:20;;;;;;;15.65;8.95;;;;;;;;;;4960676;28;20030;-85
2023/01/23 16:04:46;;;;;;;15.32;9.25;;;;;;;;;;4960910;28;20035;-87
2023/01/23 16:07:19;;;;;;;16.58;9.40;;;;;;;;;;4978033;28;20026;-85
2023/01/23 16:09:48;;;;;;;18.00;10.70;;;;;;;;;;4960890;28;20027;-86
2023/01/23 16:12:16;;;;;;;16.40;9.90;;;;;;;;;;4978318;28;20031;-87
2023/01/23 16:14:42;;;;;;;16.98;10.50;;;;;;;;;;4960899;28;20054;-89
2023/01/23 16:17:08;;;;;;;14.93;9.05;;;;;;;;;;4947892;29;20074;-88
2023/01/23 16:19:34;;;;;;;15.13;9.32;;;;;;;;;;4941617;29;20118;-87
2023/01/23 16:22:00;;;;;;;14.70;8.98;;;;;;;;;;4941505;29;20023;-87
2023/01/23 16:24:27;;;;;;;17.38;10.40;;;;;;;;;;4941580;29;20122;-88
2023/01/23 16:27:00;;;;;;;14.27;8.95;;;;;;;;;;4941439;29;20028;-87
2023/01/23 16:29:30;;;;;;;16.63;9.18;;;;;;;;;;4941340;29;20035;-89
2023/01/23 16:31:57;;;;;;;15.65;9.38;;;;;;;;;;4942092;29;20098;-87
2023/01/23 16:34:24;;;;;;;16.70;10.27;;;;;;;;;;4942033;29;20031;-86
2023/01/23 16:36:51;;;;;;;16.60;9.77;;;;;;;;;;4942201;29;20051;-87
2023/01/23 16:39:18;;;;;;;18.80;9.68;;;;;;;;;;4942977;29;20023;-87
2023/01/23 16:41:45;;;;;;;17.48;10.20;;;;;;;;;;4955890;29;20275;-87
2023/01/23 16:44:15;;;;;;;17.25;10.20;;;;;;;;;;4960122;29;20020;-87
2023/01/23 16:46:43;;;;;;;17.77;10.57;;;;;;;;;;4940379;29;20023;-85
2023/01/23 16:49:12;;;;;;;17.52;10.63;;;;;;;;;;4958002;29;20043;-90
2023/01/23 16:54:57;;;;;;;17.42;10.45;;;;;;;;;;5369092;23;20051;-90
2023/01/23 17:00:50;;;;;;;16.08;9.88;;;;;;;;;;4936312;29;20110;-90
2023/01/23 17:03:21;;;;;;;14.85;9.38;;;;;;;;;;4936607;29;20036;-87